createdAt,value
2018-07-07T00:00:00.219Z,0.00
2018-07-07T00:01:00.389Z,0.00
2018-07-07T00:02:00.560Z,0.00
2018-07-07T00:03:00.727Z,0.00
2018-07-07T00:05:42.998Z,0.00
2018-07-07T00:06:43.167Z,0.00
2018-07-07T00:07:43.335Z,0.00
2018-07-07T00:08:43.508Z,0.00
2018-07-07T00:09:43.681Z,0.00
2018-07-07T00:10:43.850Z,0.00
2018-07-07T00:11:44.019Z,0.00
2018-07-07T00:12:44.186Z,0.00
2018-07-07T00:13:44.355Z,0.00
2018-07-07T00:14:44.522Z,0.00
2018-07-07T00:15:44.689Z,0.00
2018-07-07T00:16:44.867Z,0.00
2018-07-07T00:17:45.023Z,0.00
2018-07-07T00:18:45.176Z,0.00
2018-07-07T00:19:45.342Z,0.00
2018-07-07T00:22:27.653Z,0.00
2018-07-07T00:23:27.831Z,0.00
2018-07-07T00:24:28.002Z,0.00
2018-07-07T00:25:28.167Z,0.00
2018-07-07T00:26:28.336Z,0.00
2018-07-07T00:27:28.502Z,0.00
2018-07-07T00:28:28.672Z,0.00
2018-07-07T00:29:28.855Z,0.00
2018-07-07T00:30:29.028Z,0.00
2018-07-07T00:31:29.192Z,0.00
2018-07-07T00:32:29.362Z,0.00
2018-07-07T00:33:29.523Z,0.00
2018-07-07T00:34:29.687Z,0.00
2018-07-07T00:35:29.853Z,0.00
2018-07-07T00:36:30.021Z,0.00
2018-07-07T00:39:12.281Z,0.00
2018-07-07T00:40:12.463Z,0.00
2018-07-07T00:41:12.627Z,0.00
2018-07-07T00:42:12.788Z,0.00
2018-07-07T00:43:12.957Z,0.00
2018-07-07T00:44:13.116Z,0.00
2018-07-07T00:45:13.284Z,0.00
2018-07-07T00:46:13.463Z,0.00
2018-07-07T00:47:13.644Z,0.00
2018-07-07T00:48:13.781Z,0.00
2018-07-07T00:49:14.009Z,0.00
2018-07-07T00:50:14.113Z,0.00
2018-07-07T00:51:14.279Z,0.00
2018-07-07T00:52:14.445Z,0.00
2018-07-07T00:53:14.616Z,0.00
2018-07-07T00:57:15.508Z,0.00
2018-07-07T00:58:15.300Z,0.00
2018-07-07T00:59:15.465Z,0.00
2018-07-07T01:00:15.645Z,0.00
2018-07-07T01:01:15.811Z,0.00
2018-07-07T01:02:15.968Z,0.00
2018-07-07T01:03:16.129Z,0.00
2018-07-07T01:04:16.304Z,0.00
2018-07-07T01:05:16.468Z,0.00
2018-07-07T01:06:16.627Z,0.00
2018-07-07T01:07:16.802Z,0.00
2018-07-07T01:08:16.967Z,0.00
2018-07-07T01:09:18.027Z,0.00
2018-07-07T01:10:17.315Z,0.00
2018-07-07T01:11:17.471Z,0.00
2018-07-07T01:13:59.744Z,0.00
2018-07-07T01:14:59.914Z,0.00
2018-07-07T01:16:00.090Z,0.00
2018-07-07T01:17:00.246Z,0.00
2018-07-07T01:18:00.421Z,0.00
2018-07-07T01:19:00.577Z,0.00
2018-07-07T01:20:00.742Z,0.00
2018-07-07T01:21:00.920Z,0.00
2018-07-07T01:22:01.072Z,0.00
2018-07-07T01:23:01.254Z,0.00
2018-07-07T01:24:01.404Z,0.00
2018-07-07T01:25:01.594Z,0.00
2018-07-07T01:26:01.757Z,0.00
2018-07-07T01:27:01.922Z,0.00
2018-07-07T01:28:02.105Z,0.00
2018-07-07T01:30:44.368Z,0.00
2018-07-07T01:31:44.527Z,0.00
2018-07-07T01:32:44.695Z,0.00
2018-07-07T01:33:44.859Z,0.00
2018-07-07T01:34:45.027Z,0.00
2018-07-07T01:35:45.194Z,0.00
2018-07-07T01:36:45.372Z,0.00
2018-07-07T01:37:45.557Z,0.00
2018-07-07T01:38:45.699Z,0.00
2018-07-07T01:39:45.866Z,0.00
2018-07-07T01:40:46.035Z,0.00
2018-07-07T01:41:46.220Z,0.00
2018-07-07T01:42:46.377Z,0.00
2018-07-07T01:43:46.551Z,0.00
2018-07-07T01:44:46.719Z,0.00
2018-07-07T01:47:29.282Z,0.00
2018-07-07T01:48:29.505Z,0.00
2018-07-07T01:49:29.620Z,0.00
2018-07-07T01:50:29.796Z,0.00
2018-07-07T01:51:29.966Z,0.00
2018-07-07T01:52:30.133Z,0.00
2018-07-07T01:53:30.300Z,0.00
2018-07-07T01:54:30.467Z,0.00
2018-07-07T01:55:30.629Z,0.00
2018-07-07T01:56:30.803Z,0.00
2018-07-07T01:57:30.966Z,0.00
2018-07-07T01:58:31.143Z,0.00
2018-07-07T01:59:31.295Z,0.00
2018-07-07T02:00:31.475Z,0.00
2018-07-07T02:01:31.634Z,0.00
2018-07-07T02:04:13.900Z,0.00
2018-07-07T02:05:14.066Z,0.00
2018-07-07T02:06:14.226Z,0.00
2018-07-07T02:07:14.392Z,0.00
2018-07-07T02:08:14.558Z,0.00
2018-07-07T02:09:14.724Z,0.00
2018-07-07T02:10:14.893Z,0.00
2018-07-07T02:11:15.059Z,0.00
2018-07-07T02:12:15.228Z,0.00
2018-07-07T02:13:15.411Z,0.00
2018-07-07T02:14:15.558Z,0.00
2018-07-07T02:15:15.723Z,0.00
2018-07-07T02:16:15.888Z,0.00
2018-07-07T02:17:16.058Z,0.00
2018-07-07T02:18:16.229Z,0.00
2018-07-07T02:20:58.803Z,0.00
2018-07-07T02:21:58.962Z,0.00
2018-07-07T02:22:59.137Z,0.00
2018-07-07T02:23:59.295Z,0.00
2018-07-07T02:24:59.466Z,0.00
2018-07-07T02:25:59.633Z,0.00
2018-07-07T02:26:59.799Z,0.00
2018-07-07T02:27:59.974Z,0.00
2018-07-07T02:29:00.141Z,0.00
2018-07-07T02:30:00.308Z,0.00
2018-07-07T02:32:43.153Z,0.00
2018-07-07T02:33:43.063Z,0.00
2018-07-07T02:34:43.229Z,0.00
2018-07-07T02:35:43.393Z,0.00
2018-07-07T02:36:43.559Z,0.00
2018-07-07T02:37:43.725Z,0.00
2018-07-07T02:38:43.891Z,0.00
2018-07-07T02:39:44.058Z,0.00
2018-07-07T02:40:44.228Z,0.00
2018-07-07T02:41:44.399Z,0.00
2018-07-07T02:42:44.561Z,0.00
2018-07-07T02:43:44.724Z,0.00
2018-07-07T02:44:44.886Z,0.00
2018-07-07T02:45:45.054Z,0.00
2018-07-07T02:46:45.223Z,0.00
2018-07-07T02:54:36.993Z,0.00
2018-07-07T02:55:36.035Z,0.00
2018-07-07T02:56:38.988Z,0.00
2018-07-07T02:57:36.403Z,0.00
2018-07-07T02:58:36.569Z,0.00
2018-07-07T02:59:36.739Z,0.00
2018-07-07T03:00:36.902Z,0.00
2018-07-07T03:01:37.069Z,0.00
2018-07-07T03:02:39.000Z,0.00
2018-07-07T03:03:37.415Z,0.00
2018-07-07T03:06:09.707Z,0.00
2018-07-07T03:07:09.875Z,0.00
2018-07-07T03:08:10.050Z,0.00
2018-07-07T03:09:10.210Z,0.00
2018-07-07T03:10:10.377Z,0.00
2018-07-07T03:11:10.542Z,0.00
2018-07-07T03:12:10.724Z,0.00
2018-07-07T03:13:10.898Z,0.00
2018-07-07T03:14:11.058Z,0.00
2018-07-07T03:15:11.225Z,0.00
2018-07-07T03:17:53.790Z,0.00
2018-07-07T03:18:53.956Z,0.00
2018-07-07T03:19:54.125Z,0.00
2018-07-07T03:20:54.297Z,0.00
2018-07-07T03:21:54.454Z,0.00
2018-07-07T03:22:54.620Z,0.00
2018-07-07T03:23:54.782Z,0.00
2018-07-07T03:24:54.949Z,0.00
2018-07-07T03:25:55.120Z,0.00
2018-07-07T03:26:55.282Z,0.00
2018-07-07T03:29:37.849Z,0.00
2018-07-07T03:30:38.067Z,0.00
2018-07-07T03:31:38.186Z,0.00
2018-07-07T03:32:38.357Z,0.00
2018-07-07T03:33:38.513Z,0.00
2018-07-07T03:34:38.678Z,0.00
2018-07-07T03:35:38.851Z,0.00
2018-07-07T03:36:39.017Z,0.00
2018-07-07T03:37:39.182Z,0.00
2018-07-07T03:38:39.347Z,0.00
2018-07-07T03:41:21.620Z,0.00
2018-07-07T03:42:21.811Z,0.00
2018-07-07T03:43:21.952Z,0.00
2018-07-07T03:44:22.660Z,0.00
2018-07-07T03:45:22.320Z,0.00
2018-07-07T03:46:22.486Z,0.00
2018-07-07T03:47:22.654Z,0.00
2018-07-07T03:48:22.821Z,0.00
2018-07-07T03:49:23.017Z,0.00
2018-07-07T03:50:23.150Z,0.00
2018-07-07T03:53:05.409Z,0.00
2018-07-07T03:54:05.585Z,5.63
2018-07-07T03:55:05.755Z,5.63
2018-07-07T03:56:05.905Z,5.63
2018-07-07T03:57:06.083Z,5.63
2018-07-07T03:58:06.246Z,5.63
2018-07-07T03:59:06.414Z,5.63
2018-07-07T04:00:06.585Z,5.63
2018-07-07T04:01:06.750Z,5.63
2018-07-07T04:02:06.915Z,5.63
2018-07-07T04:03:07.108Z,5.63
2018-07-07T04:04:07.267Z,5.63
2018-07-07T04:05:07.462Z,5.63
2018-07-07T04:06:07.616Z,5.63
2018-07-07T04:07:07.815Z,5.63
2018-07-07T04:09:50.346Z,11.25
2018-07-07T04:10:50.526Z,11.25
2018-07-07T04:11:50.694Z,11.25
2018-07-07T04:12:50.866Z,11.25
2018-07-07T04:13:51.037Z,11.25
2018-07-07T04:14:51.193Z,11.25
2018-07-07T04:15:51.360Z,11.25
2018-07-07T04:16:51.526Z,11.25
2018-07-07T04:17:51.695Z,11.25
2018-07-07T04:18:51.856Z,11.25
2018-07-07T04:19:52.028Z,11.25
2018-07-07T04:20:52.188Z,11.25
2018-07-07T04:21:52.357Z,11.25
2018-07-07T04:22:52.545Z,11.25
2018-07-07T04:23:52.698Z,11.25
2018-07-07T04:26:35.265Z,5.63
2018-07-07T04:27:35.427Z,5.63
2018-07-07T04:28:35.579Z,5.63
2018-07-07T04:29:35.789Z,5.63
2018-07-07T04:30:35.951Z,5.63
2018-07-07T04:31:36.110Z,5.63
2018-07-07T04:32:36.269Z,11.25
2018-07-07T04:33:36.436Z,11.25
2018-07-07T04:34:36.599Z,11.25
2018-07-07T04:35:36.768Z,11.25
2018-07-07T04:36:36.965Z,11.25
2018-07-07T04:37:37.095Z,11.25
2018-07-07T04:38:37.265Z,11.25
2018-07-07T04:39:37.435Z,11.25
2018-07-07T04:40:37.615Z,11.25
2018-07-07T04:43:19.876Z,11.25
2018-07-07T04:44:20.036Z,11.25
2018-07-07T04:45:20.218Z,11.25
2018-07-07T04:46:20.386Z,11.25
2018-07-07T04:47:20.576Z,11.25
2018-07-07T04:48:20.718Z,16.88
2018-07-07T04:49:20.886Z,16.88
2018-07-07T04:50:21.051Z,16.88
2018-07-07T04:51:21.214Z,16.88
2018-07-07T04:52:21.387Z,22.50
2018-07-07T04:55:03.671Z,22.50
2018-07-07T04:56:03.830Z,28.13
2018-07-07T04:57:03.996Z,28.13
2018-07-07T04:58:04.164Z,28.13
2018-07-07T04:59:04.327Z,28.13
2018-07-07T05:00:04.492Z,28.13
2018-07-07T05:02:36.259Z,28.13
2018-07-07T05:03:36.425Z,28.13
2018-07-07T05:04:36.661Z,22.50
2018-07-07T05:05:44.741Z,22.50
2018-07-07T05:08:09.196Z,16.88
2018-07-07T05:09:09.365Z,16.88
2018-07-07T05:10:09.532Z,16.88
2018-07-07T05:11:09.699Z,16.88
2018-07-07T05:12:09.860Z,16.88
2018-07-07T05:13:10.040Z,16.88
2018-07-07T05:14:10.199Z,16.88
2018-07-07T05:15:10.366Z,11.25
2018-07-07T05:16:10.531Z,11.25
2018-07-07T05:17:10.749Z,11.25
2018-07-07T05:18:10.871Z,11.25
2018-07-07T05:19:11.042Z,11.25
2018-07-07T05:20:11.216Z,11.25
2018-07-07T05:21:19.325Z,11.25
2018-07-07T05:22:11.483Z,11.25
2018-07-07T05:23:11.685Z,11.25
2018-07-07T05:24:11.817Z,16.88
2018-07-07T05:25:19.952Z,16.88
2018-07-07T05:26:12.136Z,16.88
2018-07-07T05:27:12.276Z,16.88
2018-07-07T05:28:12.443Z,22.50
2018-07-07T05:29:12.606Z,22.50
2018-07-07T05:30:12.770Z,22.50
2018-07-07T05:31:12.948Z,22.50
2018-07-07T05:32:13.104Z,22.50
2018-07-07T05:33:13.269Z,28.13
2018-07-07T05:34:13.438Z,28.13
2018-07-07T05:35:13.603Z,28.13
2018-07-07T05:37:56.169Z,28.13
2018-07-07T05:38:56.339Z,22.50
2018-07-07T05:39:56.505Z,22.50
2018-07-07T05:40:56.670Z,22.50
2018-07-07T05:41:56.837Z,22.50
2018-07-07T05:42:57.010Z,22.50
2018-07-07T05:43:57.175Z,22.50
2018-07-07T05:44:57.341Z,22.50
2018-07-07T05:45:57.510Z,22.50
2018-07-07T05:46:57.676Z,22.50
2018-07-07T05:47:57.845Z,16.88
2018-07-07T05:48:58.017Z,16.88
2018-07-07T05:49:58.205Z,16.88
2018-07-07T05:50:58.346Z,16.88
2018-07-07T05:51:58.517Z,16.88
2018-07-07T05:54:41.099Z,16.88
2018-07-07T05:55:41.267Z,16.88
2018-07-07T05:56:41.427Z,16.88
2018-07-07T05:57:41.593Z,16.88
2018-07-07T05:58:41.762Z,16.88
2018-07-07T05:59:41.926Z,16.88
2018-07-07T06:00:42.137Z,16.88
2018-07-07T06:01:42.247Z,16.88
2018-07-07T06:02:42.429Z,16.88
2018-07-07T06:03:42.585Z,16.88
2018-07-07T06:04:42.740Z,16.88
2018-07-07T06:05:42.926Z,16.88
2018-07-07T06:06:43.088Z,16.88
2018-07-07T06:07:43.260Z,16.88
2018-07-07T06:08:43.431Z,16.88
2018-07-07T06:11:25.688Z,22.50
2018-07-07T06:12:25.852Z,22.50
2018-07-07T06:13:26.017Z,22.50
2018-07-07T06:14:26.238Z,28.13
2018-07-07T06:15:26.348Z,28.13
2018-07-07T06:16:26.516Z,28.13
2018-07-07T06:17:26.679Z,33.75
2018-07-07T06:18:26.889Z,33.75
2018-07-07T06:19:27.015Z,33.75
2018-07-07T06:20:27.185Z,39.38
2018-07-07T06:25:57.807Z,45.00
2018-07-07T06:26:57.992Z,45.00
2018-07-07T06:27:58.157Z,50.63
2018-07-07T06:28:58.321Z,50.63
2018-07-07T06:29:58.483Z,50.63
2018-07-07T06:31:06.083Z,56.25
2018-07-07T06:31:58.867Z,56.25
2018-07-07T06:32:59.034Z,61.88
2018-07-07T06:33:59.207Z,61.88
2018-07-07T06:34:59.370Z,61.88
2018-07-07T06:35:59.533Z,67.50
2018-07-07T06:36:59.695Z,67.50
2018-07-07T06:37:59.861Z,78.75
2018-07-07T06:39:00.049Z,90.00
2018-07-07T06:40:07.375Z,78.75
2018-07-07T06:41:00.413Z,78.75
2018-07-07T06:42:00.586Z,84.38
2018-07-07T06:43:00.762Z,106.88
2018-07-07T06:44:00.927Z,106.88
2018-07-07T06:45:01.092Z,101.25
2018-07-07T06:46:01.264Z,101.25
2018-07-07T06:47:01.436Z,90.00
2018-07-07T06:48:01.602Z,84.38
2018-07-07T06:49:01.767Z,84.38
2018-07-07T06:50:01.939Z,84.38
2018-07-07T06:51:02.108Z,90.00
2018-07-07T06:52:02.297Z,90.00
2018-07-07T06:53:02.462Z,101.25
2018-07-07T06:54:02.762Z,112.50
2018-07-07T06:56:44.894Z,95.63
2018-07-07T06:57:45.065Z,95.63
2018-07-07T06:58:45.634Z,106.88
2018-07-07T06:59:53.344Z,112.50
2018-07-07T07:00:45.449Z,106.88
2018-07-07T07:01:45.609Z,112.50
2018-07-07T07:02:45.780Z,129.38
2018-07-07T07:03:45.949Z,135.00
2018-07-07T07:04:46.126Z,129.38
2018-07-07T07:05:46.298Z,157.50
2018-07-07T07:06:46.473Z,163.13
2018-07-07T07:07:46.641Z,163.13
2018-07-07T07:08:46.804Z,163.13
2018-07-07T07:09:49.946Z,163.13
2018-07-07T07:10:47.104Z,146.25
2018-07-07T07:11:47.276Z,151.88
2018-07-07T07:12:47.447Z,146.25
2018-07-07T07:13:47.611Z,163.13
2018-07-07T07:14:47.776Z,168.75
2018-07-07T07:17:37.628Z,168.75
2018-07-07T07:18:30.158Z,168.75
2018-07-07T07:19:30.329Z,163.13
2018-07-07T07:20:30.515Z,163.13
2018-07-07T07:21:30.688Z,168.75
2018-07-07T07:22:30.846Z,180.00
2018-07-07T07:23:31.067Z,168.75
2018-07-07T07:24:31.192Z,163.13
2018-07-07T07:25:39.336Z,163.13
2018-07-07T07:26:32.153Z,163.13
2018-07-07T07:27:32.611Z,168.75
2018-07-07T07:28:31.783Z,168.75
2018-07-07T07:29:31.949Z,174.38
2018-07-07T07:30:32.117Z,174.38
2018-07-07T07:31:32.290Z,174.38
2018-07-07T07:32:32.452Z,174.38
2018-07-07T07:33:32.622Z,180.00
2018-07-07T07:34:32.792Z,180.00
2018-07-07T07:35:33.564Z,180.00
2018-07-07T07:36:33.158Z,174.38
2018-07-07T07:37:33.319Z,174.38
2018-07-07T07:38:33.484Z,174.38
2018-07-07T07:39:33.648Z,174.38
2018-07-07T07:40:42.079Z,174.38
2018-07-07T07:41:33.998Z,174.38
2018-07-07T07:42:34.168Z,180.00
2018-07-07T07:43:34.326Z,180.00
2018-07-07T07:44:34.493Z,174.38
2018-07-07T07:45:34.662Z,174.38
2018-07-07T07:46:34.835Z,174.38
2018-07-07T07:47:34.998Z,174.38
2018-07-07T07:48:35.164Z,174.38
2018-07-07T07:49:35.335Z,174.38
2018-07-07T07:50:43.180Z,168.75
2018-07-07T07:51:35.733Z,174.38
2018-07-07T07:52:35.907Z,174.38
2018-07-07T07:53:36.077Z,180.00
2018-07-07T07:54:36.243Z,174.38
2018-07-07T07:55:36.436Z,168.75
2018-07-07T07:56:36.645Z,174.38
2018-07-07T07:57:36.779Z,174.38
2018-07-07T07:58:37.076Z,174.38
2018-07-07T07:59:37.146Z,174.38
2018-07-07T08:00:37.315Z,180.00
2018-07-07T08:01:45.136Z,174.38
2018-07-07T08:02:38.177Z,174.38
2018-07-07T08:03:37.845Z,180.00
2018-07-07T08:04:38.018Z,174.38
2018-07-07T08:05:38.183Z,185.63
2018-07-07T08:06:38.352Z,180.00
2018-07-07T08:07:38.522Z,163.13
2018-07-07T08:08:38.730Z,168.75
2018-07-07T08:09:38.861Z,180.00
2018-07-07T08:10:39.032Z,151.88
2018-07-07T08:11:39.196Z,180.00
2018-07-07T08:15:19.790Z,151.88
2018-07-07T08:16:19.963Z,146.25
2018-07-07T08:17:20.134Z,174.38
2018-07-07T08:18:20.306Z,185.63
2018-07-07T08:19:20.478Z,168.75
2018-07-07T08:20:20.656Z,196.88
2018-07-07T08:21:20.820Z,174.38
2018-07-07T08:22:20.993Z,151.88
2018-07-07T08:23:22.030Z,168.75
2018-07-07T08:24:21.322Z,180.00
2018-07-07T08:25:21.485Z,73.13
2018-07-07T08:26:21.673Z,174.38
2018-07-07T08:27:21.808Z,174.38
2018-07-07T08:28:21.992Z,168.75
2018-07-07T08:29:22.175Z,151.88
2018-07-07T08:32:04.731Z,118.13
2018-07-07T08:33:04.911Z,106.88
2018-07-07T08:34:05.080Z,157.50
2018-07-07T08:35:05.257Z,163.13
2018-07-07T08:36:05.427Z,163.13
2018-07-07T08:37:05.598Z,118.13
2018-07-07T08:38:05.766Z,168.75
2018-07-07T08:39:05.940Z,168.75
2018-07-07T08:40:13.769Z,163.13
2018-07-07T08:41:06.309Z,163.13
2018-07-07T08:42:06.506Z,157.50
2018-07-07T08:43:06.652Z,146.25
2018-07-07T08:44:06.822Z,84.38
2018-07-07T08:45:06.994Z,140.63
2018-07-07T08:46:07.163Z,151.88
2018-07-07T08:47:07.340Z,157.50
2018-07-07T08:48:07.509Z,157.50
2018-07-07T08:49:07.668Z,163.13
2018-07-07T08:50:08.400Z,163.13
2018-07-07T08:51:08.034Z,157.50
2018-07-07T08:52:08.203Z,151.88
2018-07-07T08:53:08.376Z,157.50
2018-07-07T08:54:08.544Z,140.63
2018-07-07T08:56:51.109Z,84.38
2018-07-07T08:57:51.288Z,61.88
2018-07-07T08:58:51.470Z,56.25
2018-07-07T08:59:51.631Z,129.38
2018-07-07T09:00:51.836Z,135.00
2018-07-07T09:01:51.986Z,129.38
2018-07-07T09:02:52.157Z,163.13
2018-07-07T09:03:52.336Z,151.88
2018-07-07T09:04:52.507Z,151.88
2018-07-07T09:05:52.670Z,151.88
2018-07-07T09:06:52.840Z,135.00
2018-07-07T09:07:53.009Z,151.88
2018-07-07T09:08:53.181Z,146.25
2018-07-07T09:09:53.354Z,157.50
2018-07-07T09:10:53.527Z,163.13
2018-07-07T09:13:36.105Z,146.25
2018-07-07T09:14:36.275Z,146.25
2018-07-07T09:15:36.459Z,146.25
2018-07-07T09:16:36.634Z,140.63
2018-07-07T09:17:36.794Z,146.25
2018-07-07T09:18:36.973Z,140.63
2018-07-07T09:19:37.142Z,140.63
2018-07-07T09:20:44.475Z,140.63
2018-07-07T09:21:37.519Z,140.63
2018-07-07T09:22:37.731Z,146.25
2018-07-07T09:23:37.853Z,140.63
2018-07-07T09:24:38.086Z,140.63
2018-07-07T09:25:46.235Z,140.63
2018-07-07T09:26:38.422Z,140.63
2018-07-07T09:27:38.567Z,140.63
2018-07-07T09:28:38.756Z,140.63
2018-07-07T09:29:38.936Z,140.63
2018-07-07T09:30:39.130Z,135.00
2018-07-07T09:31:39.296Z,135.00
2018-07-07T09:32:39.455Z,135.00
2018-07-07T09:33:39.625Z,140.63
2018-07-07T09:34:39.800Z,135.00
2018-07-07T09:35:39.966Z,135.00
2018-07-07T09:36:40.135Z,135.00
2018-07-07T09:37:40.305Z,135.00
2018-07-07T09:38:40.512Z,135.00
2018-07-07T09:39:40.670Z,135.00
2018-07-07T09:40:40.837Z,135.00
2018-07-07T09:43:23.127Z,135.00
2018-07-07T09:44:23.316Z,129.38
2018-07-07T09:45:23.487Z,129.38
2018-07-07T09:46:23.664Z,129.38
2018-07-07T09:47:23.837Z,129.38
2018-07-07T09:48:24.012Z,129.38
2018-07-07T09:49:24.171Z,123.75
2018-07-07T09:50:24.351Z,123.75
2018-07-07T09:51:24.526Z,123.75
2018-07-07T09:52:24.700Z,123.75
2018-07-07T09:53:24.869Z,123.75
2018-07-07T09:54:25.041Z,123.75
2018-07-07T09:55:25.211Z,123.75
2018-07-07T09:56:26.161Z,112.50
2018-07-07T09:57:33.224Z,118.13
2018-07-07T09:58:25.780Z,123.75
2018-07-07T09:59:25.950Z,129.38
2018-07-07T10:00:26.121Z,129.38
2018-07-07T10:01:33.766Z,129.38
2018-07-07T10:02:26.432Z,129.38
2018-07-07T10:03:26.621Z,129.38
2018-07-07T10:04:26.787Z,129.38
2018-07-07T10:05:26.958Z,129.38
2018-07-07T10:06:27.125Z,129.38
2018-07-07T10:07:27.337Z,129.38
2018-07-07T10:08:27.528Z,129.38
2018-07-07T10:09:27.698Z,123.75
2018-07-07T10:10:27.885Z,123.75
2018-07-07T10:11:28.057Z,123.75
2018-07-07T10:12:28.230Z,123.75
2018-07-07T10:13:28.414Z,118.13
2018-07-07T10:14:28.574Z,123.75
2018-07-07T10:15:28.733Z,123.75
2018-07-07T10:18:21.235Z,123.75
2018-07-07T10:19:22.092Z,140.63
2018-07-07T10:20:21.516Z,168.75
2018-07-07T10:21:29.149Z,129.38
2018-07-07T10:22:21.816Z,129.38
2018-07-07T10:23:23.607Z,129.38
2018-07-07T10:24:22.165Z,123.75
2018-07-07T10:25:24.104Z,123.75
2018-07-07T10:26:22.574Z,123.75
2018-07-07T10:27:22.691Z,140.63
2018-07-07T10:28:23.146Z,151.88
2018-07-07T10:29:22.993Z,140.63
2018-07-07T10:30:23.168Z,168.75
2018-07-07T10:34:48.911Z,135.00
2018-07-07T10:35:49.096Z,135.00
2018-07-07T10:36:52.159Z,129.38
2018-07-07T10:37:49.459Z,129.38
2018-07-07T10:38:49.625Z,123.75
2018-07-07T10:39:49.792Z,123.75
2018-07-07T10:40:49.955Z,123.75
2018-07-07T10:41:50.145Z,118.13
2018-07-07T10:42:50.315Z,123.75
2018-07-07T10:43:50.584Z,118.13
2018-07-07T10:50:11.217Z,118.13
2018-07-07T10:51:11.403Z,112.50
2018-07-07T10:52:12.109Z,112.50
2018-07-07T10:53:11.779Z,112.50
2018-07-07T10:54:11.950Z,112.50
2018-07-07T10:55:12.118Z,112.50
2018-07-07T10:56:12.287Z,112.50
2018-07-07T10:57:12.473Z,112.50
2018-07-07T10:58:12.650Z,112.50
2018-07-07T10:59:20.485Z,112.50
2018-07-07T11:00:13.014Z,112.50
2018-07-07T11:01:13.201Z,112.50
2018-07-07T11:02:13.366Z,112.50
2018-07-07T11:03:13.528Z,112.50
2018-07-07T11:04:13.729Z,112.50
2018-07-07T11:05:13.887Z,112.50
2018-07-07T11:06:14.060Z,112.50
2018-07-07T11:07:14.235Z,106.88
2018-07-07T11:08:14.408Z,112.50
2018-07-07T11:09:14.582Z,112.50
2018-07-07T11:10:14.754Z,112.50
2018-07-07T11:11:14.925Z,112.50
2018-07-07T11:12:15.097Z,106.88
2018-07-07T11:13:15.270Z,112.50
2018-07-07T11:15:57.558Z,106.88
2018-07-07T11:16:57.745Z,106.88
2018-07-07T11:17:57.908Z,106.88
2018-07-07T11:18:58.083Z,106.88
2018-07-07T11:20:06.786Z,112.50
2018-07-07T11:20:58.702Z,106.88
2018-07-07T11:21:59.056Z,106.88
2018-07-07T11:22:58.781Z,106.88
2018-07-07T11:23:59.013Z,106.88
2018-07-07T11:24:59.137Z,106.88
2018-07-07T11:26:07.708Z,106.88
2018-07-07T11:26:59.492Z,106.88
2018-07-07T11:28:00.645Z,106.88
2018-07-07T11:29:01.648Z,101.25
2018-07-07T11:29:59.945Z,101.25
2018-07-07T11:31:00.121Z,106.88
2018-07-07T11:32:00.297Z,106.88
2018-07-07T11:33:00.465Z,101.25
2018-07-07T11:34:00.632Z,101.25
2018-07-07T11:35:00.799Z,101.25
2018-07-07T11:36:00.983Z,101.25
2018-07-07T11:37:01.190Z,101.25
2018-07-07T11:38:01.341Z,101.25
2018-07-07T11:39:01.511Z,106.88
2018-07-07T11:40:01.681Z,101.25
2018-07-07T11:42:44.017Z,101.25
2018-07-07T11:43:44.061Z,101.25
2018-07-07T11:44:44.237Z,106.88
2018-07-07T11:45:44.412Z,101.25
2018-07-07T11:46:44.622Z,101.25
2018-07-07T11:47:44.954Z,101.25
2018-07-07T11:48:45.024Z,101.25
2018-07-07T11:49:45.181Z,101.25
2018-07-07T11:50:45.531Z,101.25
2018-07-07T11:52:12.807Z,101.25
2018-07-07T11:53:46.029Z,101.25
2018-07-07T11:54:46.070Z,101.25
2018-07-07T11:55:46.297Z,101.25
2018-07-07T11:56:46.453Z,101.25
2018-07-07T11:57:47.640Z,101.25
2018-07-07T11:58:46.813Z,101.25
2018-07-07T11:59:46.886Z,101.25
2018-07-07T12:00:47.182Z,95.63
2018-07-07T12:01:48.121Z,95.63
2018-07-07T12:02:47.517Z,101.25
2018-07-07T12:03:47.579Z,101.25
2018-07-07T12:04:47.777Z,101.25
2018-07-07T12:05:47.939Z,101.25
2018-07-07T12:06:48.169Z,95.63
2018-07-07T12:08:00.711Z,95.63
2018-07-07T12:08:48.478Z,95.63
2018-07-07T12:10:03.246Z,95.63
2018-07-07T12:10:49.516Z,101.25
2018-07-07T12:11:49.171Z,101.25
2018-07-07T12:12:49.279Z,101.25
2018-07-07T12:13:50.453Z,95.63
2018-07-07T12:14:49.648Z,95.63
2018-07-07T12:15:49.894Z,95.63
2018-07-07T12:16:50.035Z,95.63
2018-07-07T12:17:50.186Z,95.63
2018-07-07T12:18:51.049Z,95.63
2018-07-07T12:19:50.739Z,95.63
2018-07-07T12:20:50.776Z,95.63
2018-07-07T12:21:50.968Z,95.63
2018-07-07T12:22:51.039Z,95.63
2018-07-07T12:23:51.316Z,95.63
2018-07-07T12:24:58.964Z,95.63
2018-07-07T12:25:51.512Z,95.63
2018-07-07T12:26:51.684Z,95.63
2018-07-07T12:27:51.840Z,90.00
2018-07-07T12:28:59.919Z,95.63
2018-07-07T12:29:52.236Z,95.63
2018-07-07T12:30:52.403Z,95.63
2018-07-07T12:31:52.571Z,95.63
2018-07-07T12:32:53.096Z,95.63
2018-07-07T12:33:53.426Z,95.63
2018-07-07T12:34:53.073Z,95.63
2018-07-07T12:35:53.241Z,90.00
2018-07-07T12:36:53.413Z,90.00
2018-07-07T12:37:53.586Z,95.63
2018-07-07T12:38:53.762Z,90.00
2018-07-07T12:39:53.936Z,90.00
2018-07-07T12:40:54.148Z,95.63
2018-07-07T12:41:54.284Z,95.63
2018-07-07T12:42:54.464Z,95.63
2018-07-07T12:45:37.058Z,95.63
2018-07-07T12:46:37.229Z,95.63
2018-07-07T12:47:37.417Z,95.63
2018-07-07T12:48:37.592Z,90.00
2018-07-07T12:49:37.762Z,95.63
2018-07-07T12:50:38.868Z,95.63
2018-07-07T12:51:38.104Z,95.63
2018-07-07T12:52:38.271Z,95.63
2018-07-07T12:53:46.100Z,95.63
2018-07-07T12:54:38.675Z,95.63
2018-07-07T12:55:38.838Z,95.63
2018-07-07T12:56:39.021Z,95.63
2018-07-07T12:57:39.219Z,95.63
2018-07-07T12:58:47.716Z,95.63
2018-07-07T12:59:39.584Z,95.63
2018-07-07T13:00:39.712Z,90.00
2018-07-07T13:01:39.914Z,95.63
2018-07-07T13:02:40.077Z,95.63
2018-07-07T13:03:40.245Z,95.63
2018-07-07T13:04:40.415Z,95.63
2018-07-07T13:05:40.590Z,95.63
2018-07-07T13:06:40.763Z,95.63
2018-07-07T13:07:40.936Z,95.63
2018-07-07T13:08:41.104Z,95.63
2018-07-07T13:09:41.280Z,95.63
2018-07-07T13:10:41.464Z,95.63
2018-07-07T13:11:41.621Z,95.63
2018-07-07T13:12:41.803Z,95.63
2018-07-07T13:13:42.024Z,95.63
2018-07-07T13:16:24.276Z,95.63
2018-07-07T13:17:24.454Z,95.63
2018-07-07T13:18:24.622Z,101.25
2018-07-07T13:19:24.865Z,95.63
2018-07-07T13:20:25.067Z,95.63
2018-07-07T13:21:25.177Z,95.63
2018-07-07T13:22:25.540Z,95.63
2018-07-07T13:25:15.773Z,95.63
2018-07-07T13:26:16.069Z,95.63
2018-07-07T13:27:23.286Z,95.63
2018-07-07T13:28:16.325Z,95.63
2018-07-07T13:29:16.492Z,95.63
2018-07-07T13:30:16.670Z,95.63
2018-07-07T13:31:17.653Z,95.63
2018-07-07T13:32:17.060Z,95.63
2018-07-07T13:33:17.247Z,95.63
2018-07-07T13:34:17.406Z,95.63
2018-07-07T13:35:17.578Z,95.63
2018-07-07T13:36:17.750Z,95.63
2018-07-07T13:37:17.928Z,95.63
2018-07-07T13:38:18.100Z,95.63
2018-07-07T13:39:18.268Z,95.63
2018-07-07T13:40:18.440Z,90.00
2018-07-07T13:41:18.612Z,95.63
2018-07-07T13:44:00.886Z,95.63
2018-07-07T13:45:01.065Z,95.63
2018-07-07T13:46:01.239Z,95.63
2018-07-07T13:47:01.411Z,95.63
2018-07-07T13:48:01.592Z,95.63
2018-07-07T13:49:01.755Z,95.63
2018-07-07T13:50:01.939Z,95.63
2018-07-07T13:51:02.094Z,95.63
2018-07-07T13:52:02.330Z,95.63
2018-07-07T13:53:02.377Z,95.63
2018-07-07T13:54:10.648Z,95.63
2018-07-07T13:55:02.758Z,90.00
2018-07-07T13:56:02.955Z,95.63
2018-07-07T13:57:03.173Z,90.00
2018-07-07T13:58:03.345Z,90.00
2018-07-07T13:59:03.515Z,95.63
2018-07-07T14:00:03.687Z,95.63
2018-07-07T14:01:03.859Z,95.63
2018-07-07T14:02:04.047Z,95.63
2018-07-07T14:03:04.218Z,95.63
2018-07-07T14:04:04.382Z,95.63
2018-07-07T14:05:04.554Z,95.63
2018-07-07T14:06:04.731Z,95.63
2018-07-07T14:07:04.901Z,95.63
2018-07-07T14:08:05.073Z,95.63
2018-07-07T14:11:38.156Z,95.63
2018-07-07T14:12:37.879Z,95.63
2018-07-07T14:13:38.052Z,95.63
2018-07-07T14:14:38.239Z,95.63
2018-07-07T14:15:38.407Z,95.63
2018-07-07T14:16:38.576Z,95.63
2018-07-07T14:17:38.765Z,95.63
2018-07-07T14:18:40.401Z,95.63
2018-07-07T14:19:40.693Z,95.63
2018-07-07T14:20:46.717Z,95.63
2018-07-07T14:21:39.416Z,95.63
2018-07-07T14:22:39.566Z,95.63